Time;durP1;ratioP1;P1;durP2;ratioP2;P2;SDS_P1;SDS_P2;PMS_P1;PMS_P2;Temp;Humidity;BMP_temperature;BMP_pressure;BME280_temperature;BME280_humidity;BME280_pressure;Samples;Min_cycle;Max_cycle;Signal;HPM_P1;HPM_P2
2022/10/03 00:01:23;;;;;;;1.45;0.70;;;11.30;99.90;;;;;;5106117;27;20071;-87
2022/10/03 00:03:48;;;;;;;1.77;0.70;;;11.30;99.90;;;;;;5023521;28;20024;-88
2022/10/03 00:06:21;;;;;;;1.95;0.63;;;11.20;99.90;;;;;;5097289;28;20080;-87
2022/10/03 00:09:09;;;;;;;2.15;0.70;;;11.20;99.90;;;;;;5096879;28;20044;-88
2022/10/03 00:11:38;;;;;;;1.45;0.60;;;11.20;99.90;;;;;;5099749;28;20048;-87
2022/10/03 00:14:20;;;;;;;2.22;0.80;;;11.20;99.90;;;;;;5097955;28;20024;-87
2022/10/03 00:16:45;;;;;;;1.52;0.60;;;11.30;99.90;;;;;;5083619;28;20035;-87
2022/10/03 00:19:43;;;;;;;2.63;0.70;;;11.10;99.90;;;;;;5096676;28;20028;-86
2022/10/03 00:22:40;;;;;;;3.58;0.63;;;11.10;99.90;;;;;;5076227;28;20070;-87
2022/10/03 00:25:27;;;;;;;2.40;0.80;;;11.00;99.90;;;;;;5089862;28;20027;-87
2022/10/03 00:28:14;;;;;;;1.50;0.68;;;11.00;99.90;;;;;;5091325;28;20027;-86
2022/10/03 00:31:24;;;;;;;1.88;0.77;;;11.00;99.90;;;;;;5088343;28;20016;-87
2022/10/03 00:34:22;;;;;;;2.38;1.00;;;11.00;99.90;;;;;;5019704;28;20495;-88
2022/10/03 00:37:10;;;;;;;2.78;1.00;;;10.90;99.90;;;;;;5009569;28;20021;-87
2022/10/03 00:40:13;;;;;;;1.83;1.00;;;10.90;99.90;;;;;;5078221;28;20396;-89
2022/10/03 00:42:45;;;;;;;2.17;0.90;;;10.90;99.90;;;;;;5092006;28;20056;-87
2022/10/03 00:45:38;;;;;;;3.97;1.30;;;10.90;99.90;;;;;;5092955;28;20177;-87
2022/10/03 00:48:15;;;;;;;2.72;1.17;;;10.80;99.90;;;;;;5088569;28;20606;-87
2022/10/03 00:51:00;;;;;;;3.15;1.38;;;10.80;99.90;;;;;;5089877;28;20058;-86
2022/10/03 00:53:54;;;;;;;2.70;1.20;;;10.80;99.90;;;;;;5088810;28;20499;-87
2022/10/03 00:56:44;;;;;;;3.53;1.23;;;10.70;99.90;;;;;;5109837;28;20557;-87
2022/10/03 00:59:21;;;;;;;3.08;1.38;;;10.80;99.90;;;;;;5085520;28;20055;-88
2022/10/03 01:01:49;;;;;;;3.05;1.48;;;10.80;99.90;;;;;;5091386;28;20028;-87
2022/10/03 01:04:40;;;;;;;4.13;1.30;;;11.30;99.90;;;;;;5092713;28;20070;-87
2022/10/03 01:07:18;;;;;;;3.80;1.50;;;10.80;99.90;;;;;;5089569;28;20023;-87
2022/10/03 01:10:22;;;;;;;4.55;1.55;;;10.80;99.90;;;;;;5093960;28;20278;-87
2022/10/03 01:13:05;;;;;;;5.78;1.88;;;10.80;99.90;;;;;;5079957;28;20028;-88
2022/10/03 01:16:00;;;;;;;4.05;1.52;;;10.90;99.90;;;;;;5084424;28;20047;-88
2022/10/03 01:18:36;;;;;;;3.38;1.63;;;11.00;99.90;;;;;;5067978;28;20408;-87
2022/10/03 01:21:44;;;;;;;4.13;1.77;;;10.90;99.90;;;;;;5092024;28;20398;-87
2022/10/03 01:24:32;;;;;;;4.25;1.75;;;10.90;99.90;;;;;;5087405;28;20034;-87
2022/10/03 01:27:04;;;;;;;4.25;2.40;;;10.90;99.90;;;;;;5091766;28;20019;-87
2022/10/03 01:33:01;;;;;;;3.75;1.83;;;11.00;99.90;;;;;;5090928;28;20054;-87
2022/10/03 01:35:45;;;;;;;4.88;1.80;;;11.00;99.90;;;;;;5090227;28;20059;-87
2022/10/03 01:38:27;;;;;;;4.03;2.30;;;11.00;99.90;;;;;;5091976;28;20020;-87
2022/10/03 01:41:09;;;;;;;4.25;1.98;;;11.00;99.90;;;;;;5082836;28;20027;-88
2022/10/03 01:43:54;;;;;;;3.95;1.67;;;11.00;99.90;;;;;;5090566;28;20027;-88
2022/10/03 01:46:27;;;;;;;6.07;2.10;;;11.00;99.90;;;;;;5103910;28;20073;-87
2022/10/03 01:49:14;;;;;;;6.15;2.42;;;11.10;99.90;;;;;;5089289;28;20050;-87
2022/10/03 01:52:01;;;;;;;5.03;2.13;;;11.00;99.90;;;;;;5085973;28;20016;-88
2022/10/03 01:54:41;;;;;;;4.38;2.05;;;10.90;99.90;;;;;;5095132;28;20019;-87
2022/10/03 01:57:34;;;;;;;5.35;2.00;;;10.90;99.90;;;;;;5091800;28;20377;-87
2022/10/03 02:00:11;;;;;;;;;;;10.90;99.90;;;;;;5084137;28;20020;-87
2022/10/03 02:02:49;;;;;;;4.93;2.08;;;10.90;99.90;;;;;;5092795;28;20391;-88
2022/10/03 02:05:37;;;;;;;6.25;2.33;;;10.80;99.90;;;;;;5095665;28;20046;-87
2022/10/03 02:08:23;;;;;;;5.18;2.42;;;10.80;99.90;;;;;;5083789;28;20105;-87
2022/10/03 02:11:07;;;;;;;4.70;2.30;;;10.80;99.90;;;;;;5112622;28;20028;-87
2022/10/03 02:13:36;;;;;;;4.55;1.92;;;10.80;99.90;;;;;;5095119;28;20028;-87
2022/10/03 02:16:10;;;;;;;5.55;2.72;;;10.80;99.90;;;;;;5093448;28;20036;-87
2022/10/03 02:18:59;;;;;;;5.32;2.35;;;10.80;99.90;;;;;;5090106;28;20031;-87
2022/10/03 02:21:28;;;;;;;5.75;2.17;;;10.80;99.90;;;;;;5076987;28;20044;-87
2022/10/03 02:24:16;;;;;;;5.85;2.83;;;10.90;99.90;;;;;;5090155;28;20023;-86
2022/10/03 02:26:53;;;;;;;5.00;2.10;;;10.80;99.90;;;;;;5117471;22;20051;-83
2022/10/03 02:29:50;;;;;;;4.25;1.98;;;10.80;99.90;;;;;;5090590;28;20504;-84
2022/10/03 02:32:53;;;;;;;6.18;2.85;;;10.90;99.90;;;;;;5093861;28;20023;-83
2022/10/03 02:35:50;;;;;;;4.20;2.13;;;10.90;99.90;;;;;;5090720;28;20028;-83
2022/10/03 02:38:30;;;;;;;6.75;2.20;;;10.90;99.90;;;;;;5082055;28;20503;-83
2022/10/03 02:41:14;;;;;;;7.88;2.58;;;11.00;99.90;;;;;;5066402;28;20108;-83
2022/10/03 02:44:19;;;;;;;6.72;2.47;;;11.00;99.90;;;;;;5073432;28;20074;-83
2022/10/03 02:47:00;;;;;;;8.07;2.08;;;11.00;99.90;;;;;;5073625;28;20090;-83
2022/10/03 02:49:57;;;;;;;5.43;2.72;;;11.00;99.90;;;;;;5068958;28;20017;-83
2022/10/03 02:52:34;;;;;;;6.43;2.47;;;11.00;99.90;;;;;;5072629;28;20032;-83
2022/10/03 02:55:12;;;;;;;5.85;2.58;;;11.00;99.90;;;;;;5073682;28;20017;-83
2022/10/03 02:57:52;;;;;;;6.75;2.83;;;11.00;99.90;;;;;;5067120;28;20028;-83
2022/10/03 03:00:32;;;;;;;6.53;2.78;;;11.00;99.90;;;;;;5070667;28;20027;-83
2022/10/03 03:03:10;;;;;;;5.25;2.63;;;11.00;99.90;;;;;;5073675;28;20113;-83
2022/10/03 03:06:12;;;;;;;4.88;2.22;;;11.00;99.90;;;;;;5070307;28;20164;-83
2022/10/03 03:08:57;;;;;;;;;;;11.00;99.90;;;;;;5073324;28;20074;-84
2022/10/03 03:11:31;;;;;;;5.32;1.95;;;11.00;99.90;;;;;;5071448;28;19931;-83
2022/10/03 03:14:23;;;;;;;7.85;2.88;;;11.00;99.90;;;;;;5071464;28;20017;-83
2022/10/03 03:17:08;;;;;;;4.93;2.50;;;10.90;99.90;;;;;;5071341;28;20024;-83
2022/10/03 03:20:00;;;;;;;4.75;2.50;;;11.00;99.90;;;;;;5067189;28;20489;-82
2022/10/03 03:22:55;;;;;;;5.97;2.63;;;10.90;99.90;;;;;;5071050;28;20016;-83
2022/10/03 03:25:42;;;;;;;5.90;2.38;;;10.80;99.90;;;;;;5071539;28;20086;-82
2022/10/03 03:28:21;;;;;;;5.22;2.33;;;10.80;99.90;;;;;;5071083;28;20032;-83
2022/10/03 03:30:53;;;;;;;6.43;2.70;;;10.70;99.90;;;;;;5070854;28;20048;-82
2022/10/03 03:33:37;;;;;;;6.22;2.45;;;10.80;99.90;;;;;;5070700;28;20057;-83
2022/10/03 03:36:32;;;;;;;4.55;2.33;;;10.70;99.90;;;;;;5071445;28;20021;-83
2022/10/03 03:39:22;;;;;;;4.43;2.22;;;10.70;99.90;;;;;;5071922;28;20477;-83
2022/10/03 03:42:12;;;;;;;5.43;2.53;;;10.80;99.90;;;;;;5059227;28;20562;-83
2022/10/03 03:44:55;;;;;;;5.03;2.42;;;10.70;99.90;;;;;;5070159;28;20044;-83
2022/10/03 03:47:37;;;;;;;6.10;2.40;;;10.70;99.90;;;;;;5072321;28;20044;-83
2022/10/03 03:50:24;;;;;;;5.80;2.67;;;10.70;99.90;;;;;;5067385;28;20032;-83
2022/10/03 03:52:58;;;;;;;5.60;2.40;;;10.70;99.90;;;;;;5072023;28;20255;-83
2022/10/03 03:55:47;;;;;;;8.75;2.80;;;10.70;99.90;;;;;;5072175;28;20062;-82
2022/10/03 03:58:50;;;;;;;5.95;2.80;;;10.70;99.90;;;;;;5066934;28;20643;-83
2022/10/03 04:01:37;;;;;;;6.05;2.63;;;10.60;99.90;;;;;;5071190;28;20094;-82
2022/10/03 04:04:19;;;;;;;6.07;3.08;;;10.60;99.90;;;;;;5071577;28;20016;-83
2022/10/03 04:06:49;;;;;;;6.75;2.70;;;10.50;99.90;;;;;;5075149;28;20044;-84
2022/10/03 04:09:15;;;;;;;5.72;2.47;;;10.50;99.90;;;;;;5070483;28;20078;-83
2022/10/03 04:11:48;;;;;;;5.57;2.70;;;10.50;99.90;;;;;;5071022;28;20068;-83
2022/10/03 04:14:38;;;;;;;5.55;2.47;;;10.40;99.90;;;;;;5084098;28;20042;-82
2022/10/03 04:20:20;;;;;;;7.60;2.70;;;10.40;99.90;;;;;;5089390;28;20036;-84
2022/10/03 04:23:11;;;;;;;6.88;2.95;;;10.40;99.90;;;;;;5090832;28;20081;-82
2022/10/03 04:26:07;;;;;;;5.10;2.58;;;10.30;99.90;;;;;;5105824;28;20028;-82
2022/10/03 04:28:49;;;;;;;4.88;2.17;;;10.30;99.90;;;;;;5087925;28;20132;-82
2022/10/03 04:31:40;;;;;;;5.82;2.75;;;10.30;99.90;;;;;;5086286;28;20017;-83
2022/10/03 04:34:41;;;;;;;5.15;2.45;;;10.30;99.90;;;;;;5071944;28;20567;-83
2022/10/03 04:37:45;;;;;;;6.43;3.10;;;10.20;99.90;;;;;;5067994;28;20039;-83
2022/10/03 04:40:40;;;;;;;7.15;3.08;;;10.20;99.90;;;;;;5064532;28;20032;-83
2022/10/03 04:43:12;;;;;;;4.95;2.70;;;10.20;99.90;;;;;;5068725;28;20107;-83
2022/10/03 04:45:44;;;;;;;;;;;10.10;99.90;;;;;;5071006;28;20019;-82
2022/10/03 04:48:15;;;;;;;5.77;2.13;;;10.10;99.90;;;;;;5065124;28;19909;-82
2022/10/03 04:51:17;;;;;;;7.73;2.43;;;10.10;99.90;;;;;;5068804;28;20402;-83
2022/10/03 04:53:52;;;;;;;7.20;3.15;;;10.10;99.90;;;;;;5070454;28;20259;-83
2022/10/03 04:56:39;;;;;;;6.20;2.83;;;10.10;99.90;;;;;;5068560;28;20059;-83
2022/10/03 04:59:11;;;;;;;6.60;2.58;;;10.00;99.90;;;;;;5067771;28;20504;-82
2022/10/03 05:01:42;;;;;;;;;;;10.00;99.90;;;;;;5069873;28;20112;-83
2022/10/03 05:04:34;;;;;;;4.63;1.95;;;10.00;99.90;;;;;;5086864;28;20357;-83
2022/10/03 05:07:44;;;;;;;4.55;2.10;;;10.00;99.90;;;;;;5064248;28;20027;-83
2022/10/03 05:10:37;;;;;;;5.20;2.35;;;10.00;99.90;;;;;;5066387;28;20452;-83
2022/10/03 05:13:40;;;;;;;7.38;3.30;;;9.90;99.90;;;;;;5067767;28;20443;-83
2022/10/03 05:16:18;;;;;;;6.85;3.00;;;10.10;99.90;;;;;;5014769;28;20046;-82
2022/10/03 05:18:46;;;;;;;6.70;2.92;;;10.10;99.90;;;;;;5067532;28;20024;-82
2022/10/03 05:21:23;;;;;;;5.30;2.40;;;10.10;99.90;;;;;;5070382;28;20044;-83
2022/10/03 05:24:18;;;;;;;6.15;3.15;;;10.10;99.90;;;;;;5064804;28;20469;-83
2022/10/03 05:27:02;;;;;;;6.75;2.70;;;10.20;99.90;;;;;;5080471;28;20024;-82
2022/10/03 05:29:37;;;;;;;7.32;2.67;;;10.20;99.90;;;;;;5066452;28;20031;-83
2022/10/03 05:32:09;;;;;;;7.35;3.05;;;10.20;99.90;;;;;;5069305;28;20028;-82
2022/10/03 05:34:53;;;;;;;5.95;2.55;;;10.20;99.90;;;;;;5068642;28;20040;-83
2022/10/03 05:37:49;;;;;;;7.30;2.55;;;10.20;99.90;;;;;;5070515;28;20040;-83
2022/10/03 05:40:29;;;;;;;7.07;2.95;;;10.20;99.90;;;;;;5055895;28;20117;-82
2022/10/03 05:43:22;;;;;;;7.68;3.17;;;10.20;99.90;;;;;;5084458;28;20020;-82
2022/10/03 05:46:04;;;;;;;6.93;3.28;;;10.30;99.90;;;;;;5064769;28;20469;-83
2022/10/03 05:49:05;;;;;;;5.65;2.83;;;10.30;99.90;;;;;;5067066;28;20021;-83
2022/10/03 05:52:03;;;;;;;11.85;3.15;;;10.30;99.90;;;;;;5050740;28;20123;-82
2022/10/03 05:55:03;;;;;;;6.28;2.85;;;10.30;99.90;;;;;;5065220;28;20028;-83
2022/10/03 05:57:59;;;;;;;5.57;2.72;;;10.30;99.90;;;;;;5068842;28;20556;-83
2022/10/03 06:00:56;;;;;;;9.82;2.80;;;10.30;99.90;;;;;;5067318;28;20029;-82
2022/10/03 06:03:40;;;;;;;7.43;3.35;;;10.30;99.90;;;;;;5050151;28;20516;-83
2022/10/03 06:06:23;;;;;;;8.40;3.50;;;10.40;99.90;;;;;;5072980;28;20029;-82
2022/10/03 06:08:58;;;;;;;8.65;3.10;;;10.40;99.90;;;;;;5070294;28;20054;-82
2022/10/03 06:11:39;;;;;;;8.88;3.20;;;10.50;99.90;;;;;;5074637;28;20116;-82
2022/10/03 06:14:07;;;;;;;10.32;3.80;;;10.50;99.90;;;;;;5068875;28;20028;-83
2022/10/03 06:16:52;;;;;;;9.30;3.85;;;10.50;99.90;;;;;;5073076;28;20086;-83
2022/10/03 06:19:18;;;;;;;8.48;3.47;;;10.50;99.90;;;;;;5069692;28;20020;-83
2022/10/03 06:22:21;;;;;;;10.65;4.05;;;10.50;99.90;;;;;;5089549;28;20015;-82
2022/10/03 06:25:14;;;;;;;12.25;4.35;;;10.50;99.90;;;;;;5089179;28;20016;-82
2022/10/03 06:27:46;;;;;;;10.85;3.78;;;10.50;99.90;;;;;;5091786;28;20024;-83
2022/10/03 06:30:20;;;;;;;9.32;4.07;;;10.60;99.90;;;;;;5094046;28;20017;-83
2022/10/03 06:33:24;;;;;;;10.45;4.43;;;10.60;99.90;;;;;;5093850;28;20086;-83
2022/10/03 06:36:12;;;;;;;9.70;3.70;;;10.60;99.90;;;;;;5087726;28;20040;-83
2022/10/03 06:39:16;;;;;;;12.90;5.20;;;10.70;99.90;;;;;;5051712;28;20111;-83
2022/10/03 06:42:09;;;;;;;9.52;4.18;;;10.70;99.90;;;;;;5076383;28;20024;-83
2022/10/03 06:45:19;;;;;;;8.68;4.07;;;10.70;99.90;;;;;;5073317;28;20448;-85
2022/10/03 06:48:02;;;;;;;10.82;4.78;;;10.70;99.90;;;;;;5071609;28;20016;-84
2022/10/03 06:50:37;;;;;;;12.02;5.05;;;10.70;99.90;;;;;;5076625;28;20028;-85
2022/10/03 06:53:40;;;;;;;11.00;5.50;;;10.70;99.90;;;;;;5072457;28;20067;-85
2022/10/03 06:56:47;;;;;;;13.95;5.30;;;10.80;99.90;;;;;;5074389;28;20032;-85
2022/10/03 06:59:21;;;;;;;9.63;4.38;;;10.80;99.90;;;;;;5071118;28;20353;-85
2022/10/03 07:02:00;;;;;;;10.00;4.75;;;10.90;99.90;;;;;;5068497;28;20040;-85
2022/10/03 07:04:42;;;;;;;9.77;3.95;;;10.90;99.90;;;;;;5076856;28;20025;-85
2022/10/03 07:07:39;;;;;;;10.13;4.35;;;10.90;99.90;;;;;;5074477;28;20024;-86
2022/10/03 07:10:33;;;;;;;9.10;4.13;;;10.90;99.90;;;;;;5074173;28;20039;-86
2022/10/03 07:13:05;;;;;;;12.63;4.18;;;10.90;99.90;;;;;;5070224;28;20023;-86
2022/10/03 07:16:07;;;;;;;7.75;3.95;;;10.90;99.90;;;;;;5073252;28;20024;-85
2022/10/03 07:18:48;;;;;;;11.15;4.97;;;10.90;99.90;;;;;;5070120;28;20024;-85
2022/10/03 07:21:41;;;;;;;11.57;5.05;;;10.90;99.90;;;;;;5072521;28;20057;-85
2022/10/03 07:24:25;;;;;;;11.00;4.28;;;11.00;99.90;;;;;;5067664;28;20082;-85
2022/10/03 07:27:08;;;;;;;9.40;4.10;;;11.00;99.90;;;;;;5071340;28;20774;-86
2022/10/03 07:30:12;;;;;;;10.30;4.38;;;11.00;99.90;;;;;;5066344;28;20017;-86
2022/10/03 07:33:22;;;;;;;10.05;3.53;;;11.10;99.90;;;;;;5029962;28;20039;-85
2022/10/03 07:39:26;;;;;;;8.15;3.30;;;11.20;99.90;;;;;;5070960;28;20112;-86
2022/10/03 07:42:13;;;;;;;7.93;3.33;;;11.30;99.90;;;;;;5064244;28;20079;-87
2022/10/03 07:45:10;;;;;;;9.65;4.47;;;11.30;99.90;;;;;;5066851;28;20495;-86
2022/10/03 07:48:12;;;;;;;8.18;3.72;;;11.40;99.90;;;;;;5070589;28;20099;-86
2022/10/03 07:51:16;;;;;;;9.27;4.15;;;11.50;99.90;;;;;;5046932;28;20041;-86
2022/10/03 07:54:06;;;;;;;8.32;4.03;;;11.60;99.90;;;;;;5082874;28;20343;-84
2022/10/03 07:57:09;;;;;;;10.73;4.85;;;11.70;99.90;;;;;;5071904;28;20500;-85
2022/10/03 07:59:39;;;;;;;11.02;4.28;;;11.70;99.90;;;;;;5066190;28;20049;-84
2022/10/03 08:02:26;;;;;;;11.70;4.88;;;11.80;99.90;;;;;;5068964;28;20031;-85
2022/10/03 08:05:29;;;;;;;12.73;5.03;;;11.80;99.90;;;;;;5071413;28;20059;-85
2022/10/03 08:08:02;;;;;;;11.27;5.13;;;11.90;99.90;;;;;;5071218;28;20017;-85
2022/10/03 08:10:55;;;;;;;14.55;5.88;;;12.10;99.90;;;;;;5070134;28;20024;-84
2022/10/03 08:13:40;;;;;;;12.07;5.65;;;12.10;99.90;;;;;;5070330;28;20512;-84
2022/10/03 08:16:11;;;;;;;12.13;4.80;;;12.10;99.90;;;;;;5068160;28;20052;-84
2022/10/03 08:19:13;;;;;;;9.68;4.25;;;12.00;99.90;;;;;;5069840;28;20093;-84
2022/10/03 08:22:18;;;;;;;9.85;3.35;;;12.00;99.90;;;;;;5069576;28;20040;-84
2022/10/03 08:25:09;;;;;;;12.00;4.65;;;11.90;99.90;;;;;;5078420;28;20024;-84
2022/10/03 08:28:02;;;;;;;9.00;4.40;;;11.80;99.90;;;;;;5062634;28;20098;-83
2022/10/03 08:31:06;;;;;;;11.65;5.13;;;11.80;99.90;;;;;;5084971;28;20028;-85
2022/10/03 08:33:59;;;;;;;10.70;4.60;;;11.80;99.90;;;;;;5070919;28;20024;-84
2022/10/03 08:36:50;;;;;;;9.68;4.40;;;11.90;99.90;;;;;;5068635;28;20489;-84
2022/10/03 08:39:53;;;;;;;12.63;5.55;;;11.90;99.90;;;;;;5070594;28;20023;-84
2022/10/03 08:42:51;;;;;;;11.02;4.45;;;12.00;99.90;;;;;;5069151;28;20067;-83
2022/10/03 08:45:28;;;;;;;12.15;4.70;;;12.10;99.90;;;;;;5061129;28;20112;-84
2022/10/03 08:48:25;;;;;;;9.93;4.25;;;12.20;99.90;;;;;;5064085;28;20392;-84
2022/10/03 08:51:13;;;;;;;9.40;4.60;;;12.30;99.90;;;;;;5070072;28;20488;-83
2022/10/03 08:53:55;;;;;;;10.63;4.65;;;12.50;99.90;;;;;;5059971;28;20115;-84
2022/10/03 08:56:39;;;;;;;10.63;4.80;;;12.70;99.90;;;;;;5063781;28;20032;-85
2022/10/03 08:59:43;;;;;;;7.57;3.92;;;13.00;99.90;;;;;;5065615;28;20044;-84
2022/10/03 09:02:30;;;;;;;8.70;4.10;;;13.10;99.90;;;;;;5066552;28;20024;-85
2022/10/03 09:05:17;;;;;;;8.80;4.03;;;13.10;99.90;;;;;;5073808;28;20036;-83
2022/10/03 09:08:04;;;;;;;11.27;3.22;;;13.10;99.90;;;;;;5065766;28;20080;-83
2022/10/03 09:10:35;;;;;;;7.82;2.97;;;13.10;99.90;;;;;;5060752;28;20025;-83
2022/10/03 09:13:22;;;;;;;5.57;2.92;;;12.90;99.90;;;;;;5061020;28;20017;-83
2022/10/03 09:16:28;;;;;;;10.13;3.88;;;12.90;99.90;;;;;;5063344;28;20083;-84
2022/10/03 09:19:11;;;;;;;11.10;3.60;;;12.80;99.90;;;;;;5077574;28;20035;-83
2022/10/03 09:22:02;;;;;;;6.53;3.10;;;12.80;99.90;;;;;;5083566;28;20056;-83
2022/10/03 09:24:41;;;;;;;7.40;3.25;;;12.90;99.90;;;;;;5064263;28;20188;-83
2022/10/03 09:27:45;;;;;;;5.65;2.80;;;12.80;99.90;;;;;;5066734;28;20025;-82
2022/10/03 09:30:40;;;;;;;5.85;2.70;;;13.00;99.90;;;;;;5064945;28;20021;-83
2022/10/03 09:33:38;;;;;;;6.97;2.10;;;13.30;99.90;;;;;;5062910;28;20024;-83
2022/10/03 09:36:11;;;;;;;6.22;2.50;;;13.70;99.90;;;;;;5059348;28;20051;-84
2022/10/03 09:39:05;;;;;;;7.38;2.47;;;13.80;99.90;;;;;;5066073;28;20388;-84
2022/10/03 09:42:02;;;;;;;7.32;2.63;;;13.80;99.90;;;;;;5058355;28;20024;-84
2022/10/03 09:44:36;;;;;;;7.85;3.03;;;13.60;99.90;;;;;;5064532;28;20385;-85
2022/10/03 09:47:43;;;;;;;7.18;2.78;;;13.60;99.90;;;;;;5061584;28;20092;-85
2022/10/03 09:50:28;;;;;;;5.07;2.55;;;13.50;99.90;;;;;;5071780;28;20023;-85
2022/10/03 09:53:19;;;;;;;6.20;2.63;;;13.40;99.90;;;;;;5068456;28;20028;-83
2022/10/03 09:56:18;;;;;;;5.72;2.30;;;13.30;99.90;;;;;;5061180;28;20103;-85
2022/10/03 09:59:12;;;;;;;5.13;2.60;;;13.30;99.90;;;;;;5080008;28;20029;-84
2022/10/03 10:01:58;;;;;;;5.25;2.33;;;13.30;99.90;;;;;;5053714;28;20062;-85
2022/10/03 10:04:33;;;;;;;7.28;2.50;;;13.30;99.90;;;;;;5066909;28;20103;-84
2022/10/03 10:07:29;;;;;;;7.82;2.95;;;13.40;99.90;;;;;;5062911;28;20013;-84
2022/10/03 10:10:19;;;;;;;6.78;2.65;;;13.40;99.90;;;;;;5063863;28;20024;-84
2022/10/03 10:12:56;;;;;;;10.38;2.90;;;13.40;99.90;;;;;;5070320;28;20033;-85
2022/10/03 10:15:36;;;;;;;5.20;2.05;;;13.50;99.90;;;;;;5064989;28;20037;-84
2022/10/03 10:18:23;;;;;;;5.90;2.47;;;13.50;99.90;;;;;;5056270;28;20033;-83
2022/10/03 10:21:09;;;;;;;7.53;2.83;;;13.60;99.90;;;;;;5063241;28;20036;-85
2022/10/03 10:24:12;;;;;;;6.18;2.53;;;13.70;99.90;;;;;;5064434;28;20045;-85
2022/10/03 10:26:43;;;;;;;5.07;2.35;;;13.70;99.90;;;;;;5059899;28;20035;-83
2022/10/03 10:29:30;;;;;;;6.18;2.70;;;13.80;99.90;;;;;;5068610;28;20012;-83
2022/10/03 10:32:14;;;;;;;5.28;2.22;;;13.90;99.90;;;;;;5059896;28;20448;-84
2022/10/03 10:35:18;;;;;;;8.18;2.75;;;14.00;99.90;;;;;;5068576;28;20028;-84
2022/10/03 10:38:11;;;;;;;6.45;2.33;;;13.80;99.90;;;;;;5064062;28;20056;-84
2022/10/03 10:41:21;;;;;;;4.82;2.33;;;13.90;99.90;;;;;;5052917;28;20035;-84
2022/10/03 10:44:14;;;;;;;4.30;1.88;;;14.10;99.90;;;;;;5054003;28;20032;-84
2022/10/03 10:47:22;;;;;;;4.10;1.90;;;14.30;99.90;;;;;;5054570;28;20061;-84
2022/10/03 10:50:00;;;;;;;4.55;2.05;;;14.40;99.90;;;;;;5056568;28;20021;-84
2022/10/03 10:52:47;;;;;;;5.85;2.00;;;14.50;99.90;;;;;;5055173;28;20063;-85
2022/10/03 10:55:39;;;;;;;5.30;2.15;;;14.40;99.90;;;;;;5066258;28;20032;-85
2022/10/03 10:58:35;;;;;;;6.25;2.03;;;14.30;99.90;;;;;;5061881;28;20029;-84
2022/10/03 11:01:23;;;;;;;4.15;2.20;;;14.20;99.90;;;;;;5067117;28;20034;-85
2022/10/03 11:04:07;;;;;;;5.95;2.78;;;14.10;99.90;;;;;;5072886;28;20025;-85
2022/10/03 11:06:52;;;;;;;4.38;1.80;;;14.10;99.90;;;;;;5072913;28;20044;-84
2022/10/03 11:09:34;;;;;;;4.90;1.85;;;14.00;99.90;;;;;;5063491;28;20449;-85
2022/10/03 11:12:34;;;;;;;3.92;1.75;;;14.10;99.90;;;;;;5067987;28;20453;-84
2022/10/03 11:15:26;;;;;;;2.65;1.23;;;14.20;99.90;;;;;;5054898;28;20025;-84
2022/10/03 11:18:14;;;;;;;3.40;1.13;;;14.30;99.90;;;;;;5061144;28;20036;-86
2022/10/03 11:21:17;;;;;;;3.50;1.90;;;14.40;99.90;;;;;;5058320;28;20101;-85
2022/10/03 11:24:02;;;;;;;3.78;1.50;;;14.50;99.90;;;;;;5065358;28;20551;-85
2022/10/03 11:26:55;;;;;;;4.10;1.60;;;14.60;99.90;;;;;;5066667;28;20585;-84
2022/10/03 11:29:58;;;;;;;3.85;1.35;;;15.00;99.90;;;;;;5068472;28;20565;-84
2022/10/03 11:32:43;;;;;;;3.70;1.55;;;15.20;99.90;;;;;;5070572;28;20032;-82
2022/10/03 11:35:39;;;;;;;2.58;1.20;;;15.30;99.90;;;;;;5067942;28;20013;-84
2022/10/03 11:38:28;;;;;;;3.90;1.35;;;15.30;99.90;;;;;;5087267;22;20044;-87
2022/10/03 11:40:59;;;;;;;3.35;1.25;;;15.00;99.90;;;;;;5069279;28;20094;-87
2022/10/03 11:44:03;;;;;;;2.28;1.10;;;14.80;99.90;;;;;;5069973;28;20024;-88
2022/10/03 11:47:00;;;;;;;7.40;1.63;;;14.70;99.90;;;;;;5071401;28;20021;-87
2022/10/03 11:49:40;;;;;;;3.53;1.05;;;14.40;99.90;;;;;;5052449;28;20108;-87
2022/10/03 11:52:09;;;;;;;3.15;1.23;;;14.40;99.90;;;;;;5051861;28;20074;-87
2022/10/03 11:54:44;;;;;;;2.97;1.17;;;14.40;99.90;;;;;;5053023;28;20036;-87
2022/10/03 11:57:25;;;;;;;6.68;1.83;;;14.80;99.90;;;;;;5051174;28;20516;-87
2022/10/03 12:00:05;;;;;;;4.53;1.30;;;15.20;99.90;;;;;;5047050;28;20021;-87
2022/10/03 12:02:50;;;;;;;3.20;1.05;;;15.50;99.90;;;;;;5050349;28;20370;-87
2022/10/03 12:08:56;;;;;;;2.50;0.88;;;16.10;99.90;;;;;;5052234;28;20582;-87
2022/10/03 12:12:04;;;;;;;3.33;1.00;;;15.90;99.90;;;;;;5051123;28;20108;-87
2022/10/03 12:14:39;;;;;;;1.85;0.90;;;16.10;99.90;;;;;;4993628;28;20030;-87
2022/10/03 12:17:23;;;;;;;3.95;0.95;;;16.10;99.90;;;;;;4993915;28;20570;-87
2022/10/03 12:20:18;;;;;;;2.30;0.85;;;16.00;99.90;;;;;;5029510;28;20139;-87
2022/10/03 12:22:51;;;;;;;2.70;0.90;;;15.60;99.90;;;;;;5050374;28;20025;-87
2022/10/03 12:25:22;;;;;;;2.88;1.00;;;15.60;99.90;;;;;;5050956;28;20021;-87
2022/10/03 12:28:00;;;;;;;3.58;1.00;;;15.50;99.90;;;;;;5049959;28;20469;-87
2022/10/03 12:30:54;;;;;;;3.08;0.80;;;15.30;99.90;;;;;;5048206;28;20060;-87
2022/10/03 12:33:44;;;;;;;4.13;1.10;;;15.50;99.90;;;;;;5058486;28;20036;-88
2022/10/03 12:36:17;;;;;;;2.38;0.90;;;15.50;99.90;;;;;;5046016;28;20017;-87
2022/10/03 12:39:18;;;;;;;3.63;1.38;;;15.40;99.90;;;;;;5050777;28;20503;-87
2022/10/03 12:42:17;;;;;;;2.72;0.80;;;15.50;99.90;;;;;;5049818;28;20021;-87
2022/10/03 12:45:02;;;;;;;3.47;0.93;;;15.60;99.90;;;;;;5060081;28;20028;-87
2022/10/03 12:48:00;;;;;;;4.60;0.80;;;16.00;99.90;;;;;;5052607;28;20359;-87
2022/10/03 12:50:35;;;;;;;1.73;0.52;;;15.70;99.90;;;;;;5055199;28;20033;-87
2022/10/03 12:53:01;;;;;;;1.95;0.73;;;15.80;99.90;;;;;;5058716;28;20065;-87
2022/10/03 12:55:35;;;;;;;2.75;0.80;;;16.50;99.90;;;;;;5058432;28;20079;-87
2022/10/03 12:58:26;;;;;;;1.95;0.77;;;16.20;99.90;;;;;;5050937;28;20565;-88
2022/10/03 13:01:06;;;;;;;3.08;1.02;;;16.20;99.90;;;;;;5056111;28;20021;-87
2022/10/03 13:03:48;;;;;;;1.80;0.60;;;16.10;99.90;;;;;;5065476;28;20016;-87
2022/10/03 13:06:14;;;;;;;;;;;16.00;99.90;;;;;;5057119;28;20017;-87
2022/10/03 13:08:55;;;;;;;2.45;0.60;;;16.00;99.90;;;;;;5060792;28;19958;-88
2022/10/03 13:11:50;;;;;;;3.37;1.03;;;15.70;99.90;;;;;;5054178;28;20026;-87
2022/10/03 13:14:16;;;;;;;1.42;0.52;;;15.60;99.90;;;;;;5046786;28;20162;-87
2022/10/03 13:17:07;;;;;;;3.03;0.80;;;15.90;99.90;;;;;;5053206;28;20120;-87
2022/10/03 13:20:02;;;;;;;3.67;0.60;;;15.90;99.90;;;;;;5051218;28;20021;-88
2022/10/03 13:22:31;;;;;;;1.48;0.50;;;16.10;99.90;;;;;;5047220;28;20069;-87
2022/10/03 13:25:18;;;;;;;2.40;0.68;;;16.40;99.90;;;;;;5050055;28;20021;-87
2022/10/03 13:28:14;;;;;;;1.98;0.90;;;16.30;99.90;;;;;;5050261;28;20078;-87
2022/10/03 13:31:14;;;;;;;1.60;0.70;;;16.30;99.90;;;;;;5041449;28;20127;-87
2022/10/03 13:33:44;;;;;;;5.10;0.77;;;16.40;99.90;;;;;;5067282;28;20041;-88
2022/10/03 13:36:23;;;;;;;2.67;0.80;;;16.60;99.90;;;;;;5047559;28;20029;-87
2022/10/03 13:39:05;;;;;;;1.63;0.70;;;16.90;99.90;;;;;;5063191;28;20039;-86
2022/10/03 13:41:33;;;;;;;;;;;17.00;99.90;;;;;;5052062;28;20025;-87
2022/10/03 13:44:14;;;;;;;1.67;0.70;;;17.00;99.90;;;;;;5049834;28;19986;-87
2022/10/03 13:46:55;;;;;;;3.33;0.73;;;17.00;99.90;;;;;;5050471;28;20024;-87
2022/10/03 13:49:42;;;;;;;2.10;0.75;;;17.40;99.90;;;;;;5049612;28;20028;-88
2022/10/03 13:52:22;;;;;;;2.17;0.77;;;17.30;99.90;;;;;;5040531;28;20116;-87
2022/10/03 13:55:00;;;;;;;2.20;0.70;;;17.10;99.90;;;;;;5049932;28;20462;-87
2022/10/03 13:57:35;;;;;;;3.08;0.70;;;16.80;99.90;;;;;;5049798;28;20033;-87
2022/10/03 14:00:17;;;;;;;2.13;0.82;;;16.70;99.90;;;;;;5056860;28;20021;-87
2022/10/03 14:03:06;;;;;;;3.20;0.95;;;17.00;99.90;;;;;;5050768;28;20074;-87
2022/10/03 14:05:59;;;;;;;3.72;0.65;;;17.00;99.90;;;;;;5036822;28;20063;-87
2022/10/03 14:08:39;;;;;;;5.20;1.00;;;16.70;99.90;;;;;;5048295;28;20029;-87
2022/10/03 14:11:23;;;;;;;3.50;0.70;;;16.30;99.90;;;;;;5049624;28;20044;-87
2022/10/03 14:13:54;;;;;;;4.45;1.08;;;16.10;99.90;;;;;;5042677;28;20114;-86
2022/10/03 14:16:34;;;;;;;3.08;0.73;;;16.10;99.90;;;;;;5049394;28;20029;-87
2022/10/03 14:19:16;;;;;;;2.30;0.82;;;16.10;99.90;;;;;;5049887;28;20025;-87
2022/10/03 14:22:10;;;;;;;1.67;0.65;;;16.60;99.90;;;;;;5042658;28;20021;-87
2022/10/03 14:25:02;;;;;;;1.77;0.88;;;17.40;99.90;;;;;;5051381;28;20037;-87
2022/10/03 14:27:36;;;;;;;;;;;17.80;99.90;;;;;;5054085;28;20515;-87
2022/10/03 14:30:09;;;;;;;3.60;0.77;;;18.10;99.90;;;;;;5053285;28;19979;-87
2022/10/03 14:32:47;;;;;;;1.98;0.70;;;18.40;99.90;;;;;;5051858;28;20096;-87
2022/10/03 14:35:33;;;;;;;2.90;0.75;;;18.90;99.90;;;;;;5053634;28;20025;-86
2022/10/03 14:38:14;;;;;;;3.20;0.90;;;19.30;99.90;;;;;;5044490;28;20039;-87
2022/10/03 14:40:58;;;;;;;1.92;0.85;;;19.70;99.90;;;;;;5059507;28;20112;-87